createdAt,value
2019-04-16T00:01:59.706Z,16.50
2019-04-16T00:04:43.306Z,16.97
2019-04-16T00:07:28.812Z,16.32
2019-04-16T00:10:03.057Z,16.35
2019-04-16T00:12:48.574Z,16.32
2019-04-16T00:15:16.085Z,16.37
2019-04-16T00:17:44.341Z,16.00
2019-04-16T00:20:12.683Z,16.85
2019-04-16T00:22:47.032Z,16.05
2019-04-16T00:25:14.443Z,16.70
2019-04-16T00:27:41.846Z,16.30
2019-04-16T00:30:09.462Z,16.65
2019-04-16T00:32:38.081Z,16.82
2019-04-16T00:35:06.086Z,16.95
2019-04-16T00:37:33.491Z,15.63
2019-04-16T00:40:00.888Z,16.37
2019-04-16T00:42:28.286Z,16.20
2019-04-16T00:44:55.701Z,16.57
2019-04-16T00:47:23.090Z,17.50
2019-04-16T00:49:50.503Z,16.73
2019-04-16T00:52:17.983Z,16.55
2019-04-16T00:54:45.404Z,17.20
2019-04-16T00:57:17.739Z,17.30
2019-04-16T00:59:42.011Z,17.62
2019-04-16T01:02:09.433Z,16.82
2019-04-16T01:04:36.824Z,17.50
2019-04-16T01:07:04.598Z,16.87
2019-04-16T01:09:32.035Z,16.20
2019-04-16T01:11:59.435Z,16.82
2019-04-16T01:14:27.460Z,17.37
2019-04-16T01:16:54.871Z,17.02
2019-04-16T01:19:22.266Z,17.75
2019-04-16T01:21:49.709Z,17.48
2019-04-16T01:24:17.491Z,17.40
2019-04-16T01:26:46.302Z,18.00
2019-04-16T01:29:15.360Z,17.35
2019-04-16T01:32:12.118Z,17.82
2019-04-16T01:35:02.138Z,16.82
2019-04-16T01:37:57.958Z,16.80
2019-04-16T01:40:37.737Z,17.42
2019-04-16T01:43:05.161Z,17.48
2019-04-16T01:45:32.563Z,16.50
2019-04-16T01:48:00.221Z,16.48
2019-04-16T01:50:27.671Z,17.65
2019-04-16T01:52:55.062Z,17.12
2019-04-16T01:55:25.485Z,17.07
2019-04-16T01:57:52.509Z,17.20
2019-04-16T02:00:19.702Z,17.32
2019-04-16T02:05:14.512Z,18.35
2019-04-16T02:07:41.916Z,16.82
2019-04-16T02:10:09.526Z,17.65
2019-04-16T02:12:36.942Z,18.05
2019-04-16T02:15:05.026Z,16.77
2019-04-16T02:17:32.429Z,17.80
2019-04-16T02:20:01.971Z,17.07
2019-04-16T02:22:29.077Z,16.82
2019-04-16T02:24:56.542Z,17.85
2019-04-16T02:27:26.224Z,16.90
2019-04-16T02:29:53.773Z,17.48
2019-04-16T02:32:21.240Z,17.30
2019-04-16T02:34:48.716Z,17.17
2019-04-16T02:37:16.107Z,16.87
2019-04-16T02:39:48.235Z,17.60
2019-04-16T02:42:12.821Z,17.12
2019-04-16T02:44:40.540Z,17.15
2019-04-16T02:47:08.741Z,17.12
2019-04-16T02:49:36.389Z,16.75
2019-04-16T02:52:16.434Z,17.30
2019-04-16T02:54:47.670Z,16.73
2019-04-16T02:57:27.707Z,16.57
2019-04-16T02:59:55.889Z,16.40
2019-04-16T03:02:53.625Z,17.45
2019-04-16T03:05:39.306Z,16.45
2019-04-16T03:08:06.797Z,16.48
2019-04-16T03:10:34.445Z,17.00
2019-04-16T03:13:01.826Z,16.50
2019-04-16T03:15:49.025Z,17.30
2019-04-16T03:18:17.622Z,16.75
2019-04-16T03:20:45.019Z,16.82
2019-04-16T03:23:12.459Z,17.20
2019-04-16T03:25:41.347Z,16.82
2019-04-16T03:28:09.075Z,17.65
2019-04-16T03:30:42.349Z,16.35
2019-04-16T03:33:12.388Z,16.70
2019-04-16T03:35:34.930Z,16.62
2019-04-16T03:38:04.965Z,17.67
2019-04-16T03:40:31.551Z,16.62
2019-04-16T03:43:01.259Z,16.97
2019-04-16T03:45:28.171Z,16.57
2019-04-16T03:47:55.563Z,17.30
2019-04-16T03:50:23.006Z,18.02
2019-04-16T03:52:50.413Z,17.10
2019-04-16T03:55:17.948Z,16.02
2019-04-16T03:57:45.363Z,16.42
2019-04-16T04:00:13.948Z,15.58
2019-04-16T04:02:41.243Z,16.82
2019-04-16T04:05:08.665Z,16.27
2019-04-16T04:07:35.958Z,16.87
2019-04-16T04:10:03.986Z,16.55
2019-04-16T04:12:31.406Z,16.23
2019-04-16T04:14:58.834Z,15.70
2019-04-16T04:17:26.844Z,16.27
2019-04-16T04:19:54.282Z,16.62
2019-04-16T04:22:25.309Z,15.83
2019-04-16T04:24:50.894Z,15.53
2019-04-16T04:27:19.365Z,15.98
2019-04-16T04:29:47.138Z,15.68
2019-04-16T04:32:14.535Z,15.80
2019-04-16T04:34:41.939Z,15.70
2019-04-16T04:37:09.355Z,16.25
2019-04-16T04:39:36.762Z,15.75
2019-04-16T04:42:04.162Z,16.42
2019-04-16T04:44:33.622Z,16.20
2019-04-16T04:47:00.770Z,15.30
2019-04-16T04:49:30.406Z,16.73
2019-04-16T04:51:57.400Z,17.12
2019-04-16T04:54:24.794Z,17.00
2019-04-16T04:56:52.230Z,17.37
2019-04-16T04:59:19.780Z,20.08
2019-04-16T05:01:47.222Z,17.98
2019-04-16T05:04:43.082Z,17.48
2019-04-16T05:07:10.885Z,15.20
2019-04-16T05:09:38.283Z,16.57
2019-04-16T05:12:08.096Z,16.05
2019-04-16T05:14:37.226Z,15.35
2019-04-16T05:17:06.535Z,16.17
2019-04-16T05:19:33.855Z,16.30
2019-04-16T05:22:01.286Z,15.75
2019-04-16T05:24:29.875Z,15.53
2019-04-16T05:26:57.392Z,14.95
2019-04-16T05:29:24.835Z,14.45
2019-04-16T05:31:54.561Z,15.58
2019-04-16T05:34:21.418Z,14.68
2019-04-16T05:36:48.946Z,15.18
2019-04-16T05:39:16.350Z,14.43
2019-04-16T05:41:43.740Z,15.20
2019-04-16T05:44:11.249Z,15.83
2019-04-16T05:46:41.805Z,14.87
2019-04-16T05:49:07.764Z,15.28
2019-04-16T05:51:35.174Z,15.08
2019-04-16T05:54:12.370Z,14.47
2019-04-16T05:56:44.380Z,14.73
2019-04-16T05:59:11.779Z,15.38
2019-04-16T06:01:45.506Z,14.85
2019-04-16T06:04:12.919Z,13.78
2019-04-16T06:06:40.322Z,14.25
2019-04-16T06:09:11.845Z,15.18
2019-04-16T06:11:38.052Z,14.38
2019-04-16T06:14:20.322Z,15.05
2019-04-16T06:17:12.995Z,15.08
2019-04-16T06:20:19.079Z,14.87
2019-04-16T06:22:51.206Z,15.43
2019-04-16T06:25:47.023Z,13.75
2019-04-16T06:28:36.830Z,14.83
2019-04-16T06:31:23.311Z,14.45
2019-04-16T06:34:28.433Z,15.48
2019-04-16T06:37:00.840Z,14.23
2019-04-16T06:39:43.939Z,14.30
2019-04-16T06:42:30.857Z,14.25
2019-04-16T06:45:01.547Z,13.93
2019-04-16T06:47:42.068Z,14.35
2019-04-16T06:50:40.623Z,14.65
2019-04-16T06:53:31.978Z,13.93
2019-04-16T06:56:15.275Z,14.00
2019-04-16T06:59:32.523Z,14.73
2019-04-16T07:01:26.614Z,14.30
2019-04-16T07:04:16.227Z,14.15
2019-04-16T07:07:01.778Z,14.53
2019-04-16T07:09:56.974Z,14.47
2019-04-16T07:12:26.780Z,14.55
2019-04-16T07:14:54.146Z,14.65
2019-04-16T07:17:22.483Z,15.48
2019-04-16T07:19:50.231Z,15.05
2019-04-16T07:22:21.193Z,14.03
2019-04-16T07:24:49.986Z,14.30
2019-04-16T07:27:20.107Z,14.20
2019-04-16T07:29:53.191Z,14.68
2019-04-16T07:32:42.053Z,14.95
2019-04-16T07:35:38.213Z,15.13
2019-04-16T07:38:11.666Z,15.10
2019-04-16T07:41:11.047Z,14.95
2019-04-16T07:43:55.270Z,13.68
2019-04-16T07:46:54.216Z,14.53
2019-04-16T07:49:39.823Z,14.70
2019-04-16T07:52:35.595Z,14.00
2019-04-16T07:55:18.379Z,14.73
2019-04-16T07:57:45.780Z,14.20
2019-04-16T08:00:14.310Z,14.83
2019-04-16T08:02:41.738Z,14.95
2019-04-16T08:05:09.814Z,14.23
2019-04-16T08:07:37.347Z,14.50
2019-04-16T08:10:05.230Z,15.15
2019-04-16T08:12:32.619Z,15.23
2019-04-16T08:15:12.556Z,14.05
2019-04-16T08:17:29.235Z,15.40
2019-04-16T08:19:56.882Z,14.50
2019-04-16T08:22:24.372Z,15.60
2019-04-16T08:24:59.627Z,14.60
2019-04-16T08:27:25.075Z,15.55
2019-04-16T08:29:52.481Z,14.68
2019-04-16T08:32:19.899Z,15.75
2019-04-16T08:34:47.315Z,15.03
2019-04-16T08:37:14.722Z,15.32
2019-04-16T08:39:42.141Z,15.00
2019-04-16T08:42:09.532Z,15.13
2019-04-16T08:44:36.960Z,14.30
2019-04-16T08:47:04.365Z,15.38
2019-04-16T08:49:31.763Z,15.88
2019-04-16T08:51:59.219Z,16.50
2019-04-16T08:54:26.522Z,14.95
2019-04-16T08:56:53.914Z,15.35
2019-04-16T08:59:21.340Z,14.80
2019-04-16T09:01:51.462Z,15.32
2019-04-16T09:04:17.996Z,15.65
2019-04-16T09:06:46.377Z,14.68
2019-04-16T09:09:45.898Z,15.88
2019-04-16T09:12:13.338Z,15.23
2019-04-16T09:14:55.889Z,15.70
2019-04-16T09:17:46.097Z,15.43
2019-04-16T09:20:16.346Z,15.25
2019-04-16T09:22:49.080Z,15.63
2019-04-16T09:25:25.279Z,14.98
2019-04-16T09:27:56.230Z,15.35
2019-04-16T09:30:43.158Z,15.55
2019-04-16T09:33:33.615Z,15.80
2019-04-16T09:36:07.569Z,15.30
2019-04-16T09:38:46.682Z,15.20
2019-04-16T09:41:39.246Z,16.07
2019-04-16T09:44:06.647Z,15.70
2019-04-16T09:46:50.617Z,15.30
2019-04-16T09:49:04.694Z,16.25
2019-04-16T09:51:32.475Z,16.65
2019-04-16T09:53:59.874Z,15.98
2019-04-16T09:56:30.603Z,16.15
2019-04-16T09:59:17.617Z,16.00
2019-04-16T10:01:51.142Z,15.05
2019-04-16T10:04:19.800Z,15.28
2019-04-16T10:06:47.368Z,15.58
2019-04-16T10:09:20.416Z,15.93
2019-04-16T10:11:43.963Z,15.80
2019-04-16T10:14:11.381Z,15.88
2019-04-16T10:16:38.789Z,14.75
2019-04-16T10:19:08.269Z,16.15
2019-04-16T10:21:36.008Z,15.10
2019-04-16T10:24:21.314Z,15.40
2019-04-16T10:26:52.237Z,15.98
2019-04-16T10:29:20.120Z,16.82
2019-04-16T10:31:47.543Z,17.30
2019-04-16T10:34:14.958Z,16.55
2019-04-16T10:36:42.391Z,16.23
2019-04-16T10:39:28.076Z,17.57
2019-04-16T10:42:10.048Z,17.48
2019-04-16T10:44:59.466Z,16.73
2019-04-16T10:47:36.609Z,17.23
2019-04-16T10:50:23.889Z,16.23
2019-04-16T10:53:13.587Z,17.15
2019-04-16T10:56:11.614Z,16.57
2019-04-16T10:59:01.040Z,16.70
2019-04-16T11:01:47.955Z,16.20
2019-04-16T11:04:33.383Z,17.05
2019-04-16T11:07:05.105Z,16.23
2019-04-16T11:09:32.705Z,17.40
2019-04-16T11:12:04.819Z,17.87
2019-04-16T11:14:29.650Z,17.77
2019-04-16T11:16:57.044Z,16.85
2019-04-16T11:19:24.527Z,16.55
2019-04-16T11:21:51.959Z,17.27
2019-04-16T11:24:20.649Z,16.73
2019-04-16T11:26:48.263Z,16.20
2019-04-16T11:29:15.689Z,14.85
2019-04-16T11:31:43.086Z,15.55
2019-04-16T11:34:11.167Z,14.47
2019-04-16T11:36:38.621Z,16.27
2019-04-16T11:39:07.391Z,15.45
2019-04-16T11:41:34.775Z,14.93
2019-04-16T11:44:14.237Z,13.80
2019-04-16T11:46:31.398Z,14.40
2019-04-16T11:48:58.813Z,14.47
2019-04-16T11:51:26.272Z,13.10
2019-04-16T11:53:53.707Z,14.07
2019-04-16T11:56:22.627Z,12.93
2019-04-16T11:58:50.326Z,12.73
2019-04-16T12:01:42.997Z,13.85
2019-04-16T12:04:29.882Z,13.80
2019-04-16T12:07:29.119Z,13.40
2019-04-16T12:10:18.818Z,14.25
2019-04-16T12:13:08.717Z,13.93
2019-04-16T12:16:06.571Z,13.85
2019-04-16T12:18:46.238Z,13.00
2019-04-16T12:21:30.223Z,13.68
2019-04-16T12:24:19.898Z,12.80
2019-04-16T12:27:05.864Z,12.33
2019-04-16T12:29:51.545Z,12.78
2019-04-16T12:32:26.980Z,11.55
2019-04-16T12:35:34.882Z,11.78
2019-04-16T12:38:12.238Z,11.22
2019-04-16T12:40:55.480Z,13.13
2019-04-16T12:43:41.054Z,11.57
2019-04-16T12:46:29.827Z,10.55
2019-04-16T12:49:28.477Z,10.05
2019-04-16T12:52:08.103Z,10.50
2019-04-16T12:54:59.686Z,10.68
2019-04-16T12:57:33.334Z,10.28
2019-04-16T13:00:18.858Z,9.45
2019-04-16T13:03:00.874Z,10.38
2019-04-16T13:05:32.094Z,10.13
2019-04-16T13:08:34.278Z,10.32
2019-04-16T13:11:20.367Z,9.88
2019-04-16T13:14:06.167Z,9.45
2019-04-16T13:16:44.773Z,10.20
2019-04-16T13:19:30.583Z,10.03
2019-04-16T13:21:59.915Z,9.53
2019-04-16T13:24:31.301Z,9.85
2019-04-16T13:27:02.474Z,10.63
2019-04-16T13:29:31.438Z,9.73
2019-04-16T13:31:58.831Z,9.55
2019-04-16T13:34:26.252Z,9.93
2019-04-16T13:36:59.146Z,9.08
2019-04-16T13:39:30.402Z,8.90
2019-04-16T13:41:57.799Z,8.93
2019-04-16T13:44:28.131Z,9.70
2019-04-16T13:46:55.508Z,9.30
2019-04-16T13:49:48.083Z,9.20
2019-04-16T13:52:17.082Z,9.48
2019-04-16T13:55:13.350Z,8.68
2019-04-16T13:57:42.291Z,9.13
2019-04-16T14:00:27.670Z,8.45
2019-04-16T14:02:58.274Z,8.80
2019-04-16T14:05:25.674Z,8.50
2019-04-16T14:07:53.094Z,8.80
2019-04-16T14:10:20.590Z,8.33
2019-04-16T14:12:48.024Z,8.20
2019-04-16T14:15:30.831Z,8.80
2019-04-16T14:17:52.487Z,8.33
2019-04-16T14:20:14.382Z,8.35
2019-04-16T14:22:41.846Z,8.10
2019-04-16T14:25:09.700Z,8.70
2019-04-16T14:27:37.071Z,9.23
2019-04-16T14:30:11.411Z,9.15
2019-04-16T14:32:39.161Z,8.73
2019-04-16T14:35:12.727Z,8.18
2019-04-16T14:37:40.132Z,8.53
2019-04-16T14:40:20.287Z,8.30
2019-04-16T14:42:47.766Z,8.75
2019-04-16T14:45:49.969Z,9.00
2019-04-16T14:48:08.250Z,9.75
2019-04-16T14:50:33.325Z,11.18
2019-04-16T14:53:00.838Z,12.78
2019-04-16T14:55:47.168Z,12.85
2019-04-16T14:58:37.687Z,12.65
2019-04-16T15:01:21.575Z,12.35
2019-04-16T15:04:07.684Z,13.65
2019-04-16T15:06:52.723Z,13.30
2019-04-16T15:09:23.295Z,12.85
2019-04-16T15:12:09.021Z,13.83
2019-04-16T15:14:41.054Z,14.13
2019-04-16T15:17:37.090Z,13.58
2019-04-16T15:20:23.217Z,14.50
2019-04-16T15:23:08.704Z,13.60
2019-04-16T15:25:45.345Z,12.85
2019-04-16T15:28:17.581Z,12.95
2019-04-16T15:30:54.462Z,13.25
2019-04-16T15:33:49.996Z,13.30
2019-04-16T15:36:22.861Z,13.18
2019-04-16T15:39:03.142Z,13.15
2019-04-16T15:41:46.863Z,13.30
2019-04-16T15:44:22.468Z,12.80
2019-04-16T15:47:13.348Z,12.40
2019-04-16T15:49:49.394Z,12.35
2019-04-16T15:52:37.003Z,13.05
2019-04-16T15:55:39.526Z,13.45
2019-04-16T15:58:35.145Z,13.38
2019-04-16T16:01:28.021Z,12.90
2019-04-16T16:04:27.024Z,13.53
2019-04-16T16:10:12.600Z,13.22
2019-04-16T16:12:38.309Z,13.83
2019-04-16T16:15:09.084Z,13.95
2019-04-16T16:17:36.702Z,13.95
2019-04-16T16:20:09.693Z,14.10
2019-04-16T16:22:35.380Z,14.60
2019-04-16T16:25:05.634Z,14.90
2019-04-16T16:27:32.360Z,15.10
2019-04-16T16:29:59.775Z,14.70
2019-04-16T16:32:27.178Z,14.78
2019-04-16T16:34:54.611Z,14.65
2019-04-16T16:37:22.011Z,13.60
2019-04-16T16:39:49.422Z,13.38
2019-04-16T16:42:16.864Z,13.35
2019-04-16T16:44:44.222Z,12.78
2019-04-16T16:47:25.274Z,12.98
2019-04-16T16:49:52.877Z,12.07
2019-04-16T16:52:38.949Z,11.57
2019-04-16T16:55:08.958Z,11.33
2019-04-16T16:57:45.958Z,11.78
2019-04-16T17:00:23.873Z,11.38
2019-04-16T17:02:58.676Z,11.80
2019-04-16T17:05:31.550Z,10.80
2019-04-16T17:07:58.949Z,10.65
2019-04-16T17:10:26.411Z,10.05
2019-04-16T17:12:53.943Z,11.55
2019-04-16T17:15:21.342Z,10.82
2019-04-16T17:17:48.737Z,10.08
2019-04-16T17:20:16.276Z,9.83
2019-04-16T17:22:43.655Z,10.00
2019-04-16T17:25:12.150Z,9.65
2019-04-16T17:27:51.378Z,8.70
2019-04-16T17:30:09.426Z,9.13
2019-04-16T17:32:36.810Z,9.38
2019-04-16T17:35:07.026Z,8.80
2019-04-16T17:37:33.625Z,8.68
2019-04-16T17:40:26.811Z,8.88
2019-04-16T17:42:57.291Z,9.03
2019-04-16T17:45:42.815Z,9.58
2019-04-16T17:48:32.403Z,8.20
2019-04-16T17:51:19.367Z,8.23
2019-04-16T17:53:49.842Z,8.58
2019-04-16T17:56:39.669Z,7.67
2019-04-16T17:59:10.180Z,6.78
2019-04-16T18:01:54.990Z,6.92
2019-04-16T18:04:44.495Z,7.37
2019-04-16T18:07:27.994Z,8.68
2019-04-16T18:10:12.245Z,8.73
2019-04-16T18:12:55.116Z,8.78
2019-04-16T18:15:47.170Z,9.68
2019-04-16T18:18:19.314Z,8.98
2019-04-16T18:21:05.123Z,8.50
2019-04-16T18:23:57.826Z,8.65
2019-04-16T18:26:31.607Z,9.35
2019-04-16T18:29:02.714Z,9.03
2019-04-16T18:31:38.811Z,8.90
2019-04-16T18:34:24.257Z,9.28
2019-04-16T18:37:01.162Z,9.25
2019-04-16T18:39:37.370Z,8.97
2019-04-16T18:42:08.085Z,8.65
2019-04-16T18:44:55.098Z,8.13
2019-04-16T18:47:35.646Z,8.30
2019-04-16T18:50:06.252Z,9.10
2019-04-16T18:52:36.700Z,10.20
2019-04-16T18:55:03.366Z,7.33
2019-04-16T18:57:30.867Z,7.08
2019-04-16T18:59:58.378Z,6.12
2019-04-16T19:02:28.183Z,9.30
2019-04-16T19:04:55.685Z,11.43
2019-04-16T19:07:23.184Z,20.65
2019-04-16T19:09:50.714Z,9.80
2019-04-16T19:12:19.344Z,13.32
2019-04-16T19:14:46.864Z,7.53
2019-04-16T19:17:16.656Z,7.22
2019-04-16T19:19:45.466Z,5.87
2019-04-16T19:22:13.395Z,6.65
2019-04-16T19:24:41.038Z,7.12
2019-04-16T19:27:08.667Z,6.87
2019-04-16T19:29:36.228Z,5.00
2019-04-16T19:32:03.550Z,10.32
2019-04-16T19:34:31.040Z,7.03
2019-04-16T19:36:59.592Z,6.00
2019-04-16T19:39:27.935Z,6.22
2019-04-16T19:41:57.235Z,4.95
2019-04-16T19:44:25.559Z,4.90
2019-04-16T19:46:54.350Z,4.70
2019-04-16T19:49:22.024Z,5.28
2019-04-16T19:51:49.589Z,3.35
2019-04-16T19:54:17.103Z,4.95
2019-04-16T19:56:44.538Z,5.45
2019-04-16T19:59:12.058Z,2.58
2019-04-16T20:01:39.382Z,2.92
2019-04-16T20:04:10.741Z,2.95
2019-04-16T20:06:36.127Z,2.85
2019-04-16T20:09:05.893Z,3.20
2019-04-16T20:11:33.197Z,2.90
2019-04-16T20:14:02.754Z,3.02
2019-04-16T20:16:29.661Z,2.95
2019-04-16T20:18:57.071Z,3.05
2019-04-16T20:21:24.520Z,3.10
2019-04-16T20:23:51.980Z,2.80
2019-04-16T20:26:19.667Z,2.80
2019-04-16T20:28:48.551Z,2.40
2019-04-16T20:31:16.290Z,2.67
2019-04-16T20:33:43.682Z,2.30
2019-04-16T20:36:11.114Z,2.42
2019-04-16T20:38:38.507Z,1.87
2019-04-16T20:41:05.993Z,2.25
2019-04-16T20:43:33.440Z,2.00
2019-04-16T20:46:00.866Z,1.90
2019-04-16T20:48:28.307Z,1.82
2019-04-16T20:50:59.252Z,1.87
2019-04-16T20:53:24.947Z,2.00
2019-04-16T20:55:52.350Z,2.05
2019-04-16T20:58:19.646Z,1.90
2019-04-16T21:00:48.893Z,1.75
2019-04-16T21:03:22.431Z,2.00
2019-04-16T21:05:57.340Z,1.90
2019-04-16T21:08:17.124Z,2.10
2019-04-16T21:10:43.927Z,2.00
2019-04-16T21:13:15.970Z,1.80
2019-04-16T21:15:40.568Z,1.77
2019-04-16T21:18:11.852Z,1.70
2019-04-16T21:20:38.687Z,1.90
2019-04-16T21:23:07.963Z,2.00
2019-04-16T21:25:35.595Z,1.60
2019-04-16T21:28:22.658Z,1.77
2019-04-16T21:30:53.949Z,1.65
2019-04-16T21:33:32.456Z,1.62
2019-04-16T21:36:04.768Z,1.62
2019-04-16T21:38:48.343Z,2.02
2019-04-16T21:41:15.759Z,1.90
2019-04-16T21:43:43.303Z,1.85
2019-04-16T21:46:10.745Z,1.98
2019-04-16T21:48:38.138Z,2.12
2019-04-16T21:51:05.559Z,2.30
2019-04-16T21:53:32.978Z,2.33
2019-04-16T21:56:00.381Z,2.80
2019-04-16T21:58:27.822Z,2.70
2019-04-16T22:01:13.086Z,3.40
2019-04-16T22:03:42.242Z,3.30
2019-04-16T22:06:09.943Z,3.30
2019-04-16T22:08:37.371Z,3.65
2019-04-16T22:11:04.786Z,4.12
2019-04-16T22:13:32.288Z,4.42
2019-04-16T22:15:59.807Z,4.58
2019-04-16T22:18:27.327Z,4.75
2019-04-16T22:20:54.730Z,4.70
2019-04-16T22:23:22.759Z,5.60
2019-04-16T22:25:50.161Z,5.67
2019-04-16T22:28:17.418Z,5.35
2019-04-16T22:33:11.707Z,3.70
2019-04-16T22:35:39.090Z,3.58
2019-04-16T22:38:06.727Z,3.58
2019-04-16T22:40:46.070Z,3.90
2019-04-16T22:43:33.023Z,4.42
2019-04-16T22:46:13.774Z,4.00
2019-04-16T22:48:53.955Z,4.37
2019-04-16T22:51:22.431Z,4.03
2019-04-16T22:53:50.168Z,5.58
2019-04-16T22:56:18.161Z,5.08
2019-04-16T22:58:48.670Z,5.50
2019-04-16T23:01:17.051Z,5.85
2019-04-16T23:03:44.498Z,6.30
2019-04-16T23:06:11.942Z,6.17
2019-04-16T23:08:40.500Z,6.08
2019-04-16T23:11:08.594Z,5.97
2019-04-16T23:13:35.994Z,7.85
2019-04-16T23:16:03.650Z,7.78
2019-04-16T23:18:31.053Z,8.08
2019-04-16T23:20:58.457Z,8.28
2019-04-16T23:23:25.854Z,9.43
2019-04-16T23:25:53.276Z,10.30
2019-04-16T23:28:20.672Z,8.88
2019-04-16T23:30:51.131Z,9.15
2019-04-16T23:33:17.353Z,8.28
2019-04-16T23:35:44.759Z,8.73
2019-04-16T23:38:12.183Z,8.80
2019-04-16T23:40:40.773Z,9.70
2019-04-16T23:43:30.865Z,8.85
2019-04-16T23:46:23.563Z,12.30
2019-04-16T23:49:10.514Z,14.35
2019-04-16T23:51:45.035Z,14.13
2019-04-16T23:54:23.369Z,13.78
2019-04-16T23:57:13.168Z,15.10
